sensor_id;sensor_type;location;lat;lon;timestamp;pressure;altitude;pressure_sealevel;temperature;humidity
44144;BME280;43510;51.920;4.492;2022-09-01T00:00:39;68053.47;;;19.83;67.61
44144;BME280;43510;51.920;4.492;2022-09-01T00:03:07;68048.94;;;19.79;67.95
44144;BME280;43510;51.920;4.492;2022-09-01T00:05:35;68047.69;;;19.76;67.95
44144;BME280;43510;51.920;4.492;2022-09-01T00:08:03;68053.47;;;19.83;68.20
44144;BME280;43510;51.920;4.492;2022-09-01T00:10:29;68058.78;;;19.83;68.10
44144;BME280;43510;51.920;4.492;2022-09-01T00:12:54;68057.22;;;19.84;68.14
44144;BME280;43510;51.920;4.492;2022-09-01T00:15:20;68051.75;;;19.82;68.32
44144;BME280;43510;51.920;4.492;2022-09-01T00:17:46;68050.63;;;19.81;68.34
44144;BME280;43510;51.920;4.492;2022-09-01T00:20:11;68054.44;;;19.82;68.49
44144;BME280;43510;51.920;4.492;2022-09-01T00:22:36;68045.03;;;19.76;68.56
44144;BME280;43510;51.920;4.492;2022-09-01T00:25:02;68044.28;;;19.73;68.88
44144;BME280;43510;51.920;4.492;2022-09-01T00:27:28;68041.91;;;19.68;69.19
44144;BME280;43510;51.920;4.492;2022-09-01T00:29:53;68039.41;;;19.71;68.87
44144;BME280;43510;51.920;4.492;2022-09-01T00:32:19;68035.47;;;19.67;69.22
44144;BME280;43510;51.920;4.492;2022-09-01T00:34:44;68024.63;;;19.55;69.32
44144;BME280;43510;51.920;4.492;2022-09-01T00:37:10;68026.19;;;19.54;69.45
44144;BME280;43510;51.920;4.492;2022-09-01T00:39:35;68016.91;;;19.50;69.48
44144;BME280;43510;51.920;4.492;2022-09-01T00:42:03;68014.13;;;19.48;69.69
44144;BME280;43510;51.920;4.492;2022-09-01T00:44:28;68019.75;;;19.53;69.63
44144;BME280;43510;51.920;4.492;2022-09-01T00:46:55;68028.84;;;19.54;69.98
44144;BME280;43510;51.920;4.492;2022-09-01T00:49:27;68022.41;;;19.53;70.48
44144;BME280;43510;51.920;4.492;2022-09-01T00:51:58;68023.94;;;19.52;70.15
44144;BME280;43510;51.920;4.492;2022-09-01T00:54:27;68045.44;;;19.74;69.62
44144;BME280;43510;51.920;4.492;2022-09-01T00:57:01;68023.53;;;19.54;70.43
44144;BME280;43510;51.920;4.492;2022-09-01T00:59:26;68012.66;;;19.42;70.35
44144;BME280;43510;51.920;4.492;2022-09-01T01:01:52;68007.03;;;19.37;70.66
44144;BME280;43510;51.920;4.492;2022-09-01T01:04:17;67997.09;;;19.30;70.73
44144;BME280;43510;51.920;4.492;2022-09-01T01:06:47;67995.81;;;19.27;71.19
44144;BME280;43510;51.920;4.492;2022-09-01T01:09:19;67998.06;;;19.29;71.33
44144;BME280;43510;51.920;4.492;2022-09-01T01:11:46;67994.84;;;19.28;71.28
44144;BME280;43510;51.920;4.492;2022-09-01T01:14:14;67996.22;;;19.25;71.36
44144;BME280;43510;51.920;4.492;2022-09-01T01:16:43;67991.88;;;19.23;71.41
44144;BME280;43510;51.920;4.492;2022-09-01T01:19:31;67992.44;;;19.24;71.79
44144;BME280;43510;51.920;4.492;2022-09-01T01:22:28;67981.91;;;19.16;72.11
44144;BME280;43510;51.920;4.492;2022-09-01T01:25:16;67979.66;;;19.14;72.00
44144;BME280;43510;51.920;4.492;2022-09-01T01:27:42;67972.91;;;19.08;72.10
44144;BME280;43510;51.920;4.492;2022-09-01T01:30:09;67973.50;;;19.09;72.22
44144;BME280;43510;51.920;4.492;2022-09-01T01:32:36;67975.19;;;19.10;72.59
44144;BME280;43510;51.920;4.492;2022-09-01T01:35:04;67973.34;;;19.06;72.50
44144;BME280;43510;51.920;4.492;2022-09-01T01:37:33;67968.44;;;19.04;72.65
44144;BME280;43510;51.920;4.492;2022-09-01T01:39:59;67968.44;;;19.04;72.64
44144;BME280;43510;51.920;4.492;2022-09-01T01:42:26;67967.72;;;19.01;72.73
44144;BME280;43510;51.920;4.492;2022-09-01T01:44:52;67960.16;;;18.99;73.10
44144;BME280;43510;51.920;4.492;2022-09-01T01:47:18;67961.13;;;18.98;73.11
44144;BME280;43510;51.920;4.492;2022-09-01T01:49:44;67953.69;;;18.89;73.57
44144;BME280;43510;51.920;4.492;2022-09-01T01:52:11;67947.25;;;18.88;73.71
44144;BME280;43510;51.920;4.492;2022-09-01T01:54:42;67980.63;;;19.13;72.94
44144;BME280;43510;51.920;4.492;2022-09-01T01:57:11;67955.22;;;18.88;73.82
44144;BME280;43510;51.920;4.492;2022-09-01T01:59:41;67941.06;;;18.82;74.06
44144;BME280;43510;51.920;4.492;2022-09-01T02:02:06;67937.00;;;18.76;74.16
44144;BME280;43510;51.920;4.492;2022-09-01T02:04:34;67940.22;;;18.77;74.57
44144;BME280;43510;51.920;4.492;2022-09-01T02:06:59;67940.22;;;18.77;74.56
44144;BME280;43510;51.920;4.492;2022-09-01T02:09:25;67934.56;;;18.71;74.55
44144;BME280;43510;51.920;4.492;2022-09-01T02:11:51;67938.53;;;18.75;74.66
44144;BME280;43510;51.920;4.492;2022-09-01T02:14:22;67966.19;;;19.02;74.00
44144;BME280;43510;51.920;4.492;2022-09-01T02:16:48;67945.81;;;18.82;74.23
44144;BME280;43510;51.920;4.492;2022-09-01T02:19:16;67929.25;;;18.71;74.53
44144;BME280;43510;51.920;4.492;2022-09-01T02:21:45;67931.78;;;18.69;74.59
44144;BME280;43510;51.920;4.492;2022-09-01T02:24:13;67923.34;;;18.61;74.83
44144;BME280;43510;51.920;4.492;2022-09-01T02:26:42;67919.00;;;18.60;75.35
44144;BME280;43510;51.920;4.492;2022-09-01T02:29:17;67916.91;;;18.60;75.11
44144;BME280;43510;51.920;4.492;2022-09-01T02:31:47;67916.06;;;18.55;75.48
44144;BME280;43510;51.920;4.492;2022-09-01T02:34:14;67908.50;;;18.53;75.71
44144;BME280;43510;51.920;4.492;2022-09-01T02:36:46;67911.88;;;18.56;75.73
44144;BME280;43510;51.920;4.492;2022-09-01T02:39:21;67907.94;;;18.52;76.13
44144;BME280;43510;51.920;4.492;2022-09-01T02:41:48;67907.06;;;18.47;76.32
44144;BME280;43510;51.920;4.492;2022-09-01T02:44:14;67904.41;;;18.47;76.08
44144;BME280;43510;51.920;4.492;2022-09-01T02:46:41;67898.94;;;18.44;76.14
44144;BME280;43510;51.920;4.492;2022-09-01T02:49:09;67898.63;;;18.39;76.27
44144;BME280;43510;51.920;4.492;2022-09-01T02:51:41;67891.50;;;18.35;76.24
44144;BME280;43510;51.920;4.492;2022-09-01T02:54:07;67888.69;;;18.32;76.48
44144;BME280;43510;51.920;4.492;2022-09-01T02:56:32;67894.16;;;18.35;76.47
44144;BME280;43510;51.920;4.492;2022-09-01T02:58:58;67897.34;;;18.35;76.42
44144;BME280;43510;51.920;4.492;2022-09-01T03:01:28;67891.63;;;18.38;76.47
44144;BME280;43510;51.920;4.492;2022-09-01T03:03:58;67890.50;;;18.36;76.21
44144;BME280;43510;51.920;4.492;2022-09-01T03:06:24;67889.38;;;18.35;76.15
44144;BME280;43510;51.920;4.492;2022-09-01T03:08:52;67883.78;;;18.30;76.33
44144;BME280;43510;51.920;4.492;2022-09-01T03:11:20;67885.00;;;18.24;76.46
44144;BME280;43510;51.920;4.492;2022-09-01T03:13:47;67872.00;;;18.20;76.51
44144;BME280;43510;51.920;4.492;2022-09-01T03:16:13;67880.81;;;18.25;76.46
44144;BME280;43510;51.920;4.492;2022-09-01T03:18:39;67879.84;;;18.27;76.39
44144;BME280;43510;51.920;4.492;2022-09-01T03:21:05;67883.47;;;18.25;76.35
44144;BME280;43510;51.920;4.492;2022-09-01T03:23:31;67871.41;;;18.19;76.42
44144;BME280;43510;51.920;4.492;2022-09-01T03:25:58;67875.91;;;18.23;76.35
44144;BME280;43510;51.920;4.492;2022-09-01T03:28:25;67871.41;;;18.19;76.15
44144;BME280;43510;51.920;4.492;2022-09-01T03:30:53;67878.56;;;18.23;76.18
44144;BME280;43510;51.920;4.492;2022-09-01T03:33:21;67870.88;;;18.19;76.08
44144;BME280;43510;51.920;4.492;2022-09-01T03:35:47;67878.25;;;18.18;75.86
44144;BME280;43510;51.920;4.492;2022-09-01T03:38:13;67876.34;;;18.21;75.91
44144;BME280;43510;51.920;4.492;2022-09-01T03:40:45;67872.25;;;18.15;75.81
44144;BME280;43510;51.920;4.492;2022-09-01T03:43:12;67876.34;;;18.21;75.78
44144;BME280;43510;51.920;4.492;2022-09-01T03:45:39;67872.66;;;18.13;75.91
44144;BME280;43510;51.920;4.492;2022-09-01T03:48:07;67873.50;;;18.19;75.76
44144;BME280;43510;51.920;4.492;2022-09-01T03:50:36;67873.69;;;18.21;75.67
44144;BME280;43510;51.920;4.492;2022-09-01T03:53:06;67875.19;;;18.20;75.69
44144;BME280;43510;51.920;4.492;2022-09-01T03:55:34;67875.91;;;18.23;75.41
44144;BME280;43510;51.920;4.492;2022-09-01T03:58:06;67876.88;;;18.22;75.42
44144;BME280;43510;51.920;4.492;2022-09-01T04:00:36;67876.72;;;18.19;75.41
44144;BME280;43510;51.920;4.492;2022-09-01T04:03:04;67876.72;;;18.19;75.17
44144;BME280;43510;51.920;4.492;2022-09-01T04:05:34;67875.19;;;18.20;75.14
44144;BME280;43510;51.920;4.492;2022-09-01T04:08:06;67863.25;;;18.07;74.79
44144;BME280;43510;51.920;4.492;2022-09-01T04:10:45;67871.13;;;18.14;75.18
44144;BME280;43510;51.920;4.492;2022-09-01T04:13:17;67868.47;;;18.14;75.11
44144;BME280;43510;51.920;4.492;2022-09-01T04:15:43;67866.22;;;18.12;74.88
44144;BME280;43510;51.920;4.492;2022-09-01T04:18:09;67860.59;;;18.07;75.11
44144;BME280;43510;51.920;4.492;2022-09-01T04:20:39;67859.06;;;18.08;75.18
44144;BME280;43510;51.920;4.492;2022-09-01T04:23:29;67861.03;;;18.05;75.11
44144;BME280;43510;51.920;4.492;2022-09-01T04:26:10;67864.38;;;18.08;75.01
44144;BME280;43510;51.920;4.492;2022-09-01T04:28:44;67851.78;;;18.02;74.87
44144;BME280;43510;51.920;4.492;2022-09-01T04:31:17;67854.03;;;18.04;74.74
44144;BME280;43510;51.920;4.492;2022-09-01T04:33:45;67847.56;;;17.93;74.74
44144;BME280;43510;51.920;4.492;2022-09-01T04:36:23;67840.41;;;17.89;75.08
44144;BME280;43510;51.920;4.492;2022-09-01T04:38:52;67838.56;;;17.85;74.79
44144;BME280;43510;51.920;4.492;2022-09-01T04:41:19;67835.19;;;17.82;74.86
44144;BME280;43510;51.920;4.492;2022-09-01T04:43:47;67827.66;;;17.80;75.05
44144;BME280;43510;51.920;4.492;2022-09-01T04:46:14;67823.16;;;17.76;74.78
44144;BME280;43510;51.920;4.492;2022-09-01T04:48:41;67817.53;;;17.71;74.90
44144;BME280;43510;51.920;4.492;2022-09-01T04:51:09;67817.81;;;17.66;74.66
44144;BME280;43510;51.920;4.492;2022-09-01T04:53:40;67816.13;;;17.65;74.65
44144;BME280;43510;51.920;4.492;2022-09-01T04:56:07;67815.72;;;17.67;74.32
44144;BME280;43510;51.920;4.492;2022-09-01T04:58:36;67812.50;;;17.66;74.29
44144;BME280;43510;51.920;4.492;2022-09-01T05:01:20;67817.41;;;17.68;74.00
44144;BME280;43510;51.920;4.492;2022-09-01T05:03:47;67809.34;;;17.59;74.14
44144;BME280;43510;51.920;4.492;2022-09-01T05:06:22;67815.16;;;17.66;73.77
44144;BME280;43510;51.920;4.492;2022-09-01T05:08:47;67817.25;;;17.66;73.60
44144;BME280;43510;51.920;4.492;2022-09-01T05:11:14;67813.06;;;17.67;73.32
44144;BME280;43510;51.920;4.492;2022-09-01T05:13:45;67817.41;;;17.68;73.04
44144;BME280;43510;51.920;4.492;2022-09-01T05:16:14;67819.63;;;17.70;72.70
44144;BME280;43510;51.920;4.492;2022-09-01T05:18:44;67820.19;;;17.71;72.51
44144;BME280;43510;51.920;4.492;2022-09-01T05:21:13;67827.34;;;17.75;72.08
44144;BME280;43510;51.920;4.492;2022-09-01T05:23:41;67833.09;;;17.82;71.85
44144;BME280;43510;51.920;4.492;2022-09-01T05:26:19;67839.44;;;17.90;71.36
44144;BME280;43510;51.920;4.492;2022-09-01T05:28:47;67846.56;;;17.94;70.67
44144;BME280;43510;51.920;4.492;2022-09-01T05:31:13;67842.25;;;17.93;70.32
44144;BME280;43510;51.920;4.492;2022-09-01T05:33:39;67850.66;;;18.01;70.17
44144;BME280;43510;51.920;4.492;2022-09-01T05:36:11;67866.63;;;18.10;70.01
44144;BME280;43510;51.920;4.492;2022-09-01T05:38:38;67880.81;;;18.25;68.79
44144;BME280;43510;51.920;4.492;2022-09-01T05:41:07;67889.63;;;18.31;68.35
44144;BME280;43510;51.920;4.492;2022-09-01T05:43:35;67906.22;;;18.51;67.85
44144;BME280;43510;51.920;4.492;2022-09-01T05:46:06;67936.25;;;18.73;67.04
44144;BME280;43510;51.920;4.492;2022-09-01T05:48:33;67954.41;;;18.92;65.41
44144;BME280;43510;51.920;4.492;2022-09-01T05:51:06;67964.50;;;19.01;64.80
44144;BME280;43510;51.920;4.492;2022-09-01T05:53:32;67973.75;;;19.04;64.49
44144;BME280;43510;51.920;4.492;2022-09-01T05:55:59;67968.28;;;19.02;64.25
44144;BME280;43510;51.920;4.492;2022-09-01T05:58:31;67978.41;;;19.11;64.03
44144;BME280;43510;51.920;4.492;2022-09-01T06:00:57;67976.44;;;19.14;63.64
44144;BME280;43510;51.920;4.492;2022-09-01T06:03:23;67987.13;;;19.24;62.82
44144;BME280;43510;51.920;4.492;2022-09-01T06:06:00;67994.28;;;19.28;62.58
44144;BME280;43510;51.920;4.492;2022-09-01T06:08:25;67994.00;;;19.32;62.49
44144;BME280;43510;51.920;4.492;2022-09-01T06:10:54;68003.28;;;19.36;62.01
44144;BME280;43510;51.920;4.492;2022-09-01T06:13:19;68008.88;;;19.41;61.46
44144;BME280;43510;51.920;4.492;2022-09-01T06:15:50;68015.09;;;19.46;61.30
44144;BME280;43510;51.920;4.492;2022-09-01T06:18:18;68021.84;;;19.52;60.73
44144;BME280;43510;51.920;4.492;2022-09-01T06:20:45;68024.63;;;19.55;60.50
44144;BME280;43510;51.920;4.492;2022-09-01T06:23:12;68019.00;;;19.50;60.33
44144;BME280;43510;51.920;4.492;2022-09-01T06:25:41;68031.38;;;19.61;60.08
44144;BME280;43510;51.920;4.492;2022-09-01T06:28:10;68049.94;;;19.78;59.59
44144;BME280;43510;51.920;4.492;2022-09-01T06:30:38;68062.03;;;19.93;59.23
44144;BME280;43510;51.920;4.492;2022-09-01T06:33:06;68087.44;;;20.09;58.58
44144;BME280;43510;51.920;4.492;2022-09-01T06:35:34;68092.66;;;20.16;57.73
44144;BME280;43510;51.920;4.492;2022-09-01T06:38:00;68098.41;;;20.24;57.50
44144;BME280;43510;51.920;4.492;2022-09-01T06:40:26;68110.09;;;20.32;57.26
44144;BME280;43510;51.920;4.492;2022-09-01T06:42:53;68125.44;;;20.48;57.38
44144;BME280;43510;51.920;4.492;2022-09-01T06:45:21;68139.34;;;20.58;55.78
44144;BME280;43510;51.920;4.492;2022-09-01T06:47:48;68167.88;;;20.82;55.31
44144;BME280;43510;51.920;4.492;2022-09-01T06:50:18;68199.69;;;21.15;54.46
44144;BME280;43510;51.920;4.492;2022-09-01T06:52:47;68232.34;;;21.44;53.43
44144;BME280;43510;51.920;4.492;2022-09-01T06:55:14;68239.50;;;21.48;52.74
44144;BME280;43510;51.920;4.492;2022-09-01T06:57:42;68244.72;;;21.55;52.52
44144;BME280;43510;51.920;4.492;2022-09-01T07:00:13;68259.88;;;21.69;52.46
44144;BME280;43510;51.920;4.492;2022-09-01T07:02:46;68246.94;;;21.57;52.01
44144;BME280;43510;51.920;4.492;2022-09-01T07:05:16;68223.16;;;21.34;52.37
44144;BME280;43510;51.920;4.492;2022-09-01T07:07:47;68208.13;;;21.23;53.27
44144;BME280;43510;51.920;4.492;2022-09-01T07:10:15;68200.66;;;21.13;53.45
44144;BME280;43510;51.920;4.492;2022-09-01T07:12:45;68202.50;;;21.17;53.12
44144;BME280;43510;51.920;4.492;2022-09-01T07:15:17;68207.84;;;21.17;53.38
44144;BME280;43510;51.920;4.492;2022-09-01T07:17:55;68215.72;;;21.25;53.78
44144;BME280;43510;51.920;4.492;2022-09-01T07:20:24;68209.81;;;21.24;53.65
44144;BME280;43510;51.920;4.492;2022-09-01T07:22:53;68232.75;;;21.42;53.45
44144;BME280;43510;51.920;4.492;2022-09-01T07:25:19;68255.25;;;21.63;52.72
44144;BME280;43510;51.920;4.492;2022-09-01T07:27:46;68277.19;;;21.82;52.41
44144;BME280;43510;51.920;4.492;2022-09-01T07:30:20;68277.34;;;21.85;51.65
44144;BME280;43510;51.920;4.492;2022-09-01T07:32:48;68267.06;;;21.73;51.76
44144;BME280;43510;51.920;4.492;2022-09-01T07:35:18;68253.13;;;21.63;52.58
44144;BME280;43510;51.920;4.492;2022-09-01T07:37:53;68265.78;;;21.70;52.43
44144;BME280;43510;51.920;4.492;2022-09-01T07:40:19;68264.25;;;21.71;nan
44144;BME280;43510;51.920;4.492;2022-09-01T07:42:53;68262.56;;;21.69;52.71
44144;BME280;43510;51.920;4.492;2022-09-01T07:45:18;68271.88;;;21.82;52.26
44144;BME280;43510;51.920;4.492;2022-09-01T07:47:47;68284.09;;;21.91;51.83
44144;BME280;43510;51.920;4.492;2022-09-01T07:50:24;68294.53;;;21.95;51.62
44144;BME280;43510;51.920;4.492;2022-09-01T07:52:51;68299.19;;;22.02;51.68
44144;BME280;43510;51.920;4.492;2022-09-01T07:55:19;68302.53;;;22.05;51.86
44144;BME280;43510;51.920;4.492;2022-09-01T07:57:44;68308.31;;;22.13;51.65
44144;BME280;43510;51.920;4.492;2022-09-01T08:00:13;68305.94;;;22.08;51.93
44144;BME280;43510;51.920;4.492;2022-09-01T08:02:40;68320.72;;;22.24;51.61
44144;BME280;43510;51.920;4.492;2022-09-01T08:05:10;68314.53;;;22.18;51.56
44144;BME280;43510;51.920;4.492;2022-09-01T08:07:36;68333.66;;;22.35;51.42
44144;BME280;43510;51.920;4.492;2022-09-01T08:10:07;68338.75;;;22.40;51.78
44144;BME280;43510;51.920;4.492;2022-09-01T08:12:33;68360.56;;;22.57;51.23
44144;BME280;43510;51.920;4.492;2022-09-01T08:15:01;68368.59;;;22.67;50.95
44144;BME280;43510;51.920;4.492;2022-09-01T08:17:26;68371.56;;;22.72;50.70
44144;BME280;43510;51.920;4.492;2022-09-01T08:19:54;68392.53;;;22.84;50.14
44144;BME280;43510;51.920;4.492;2022-09-01T08:22:19;68384.09;;;22.76;50.57
44144;BME280;43510;51.920;4.492;2022-09-01T08:24:48;68385.94;;;22.80;50.27
44144;BME280;43510;51.920;4.492;2022-09-01T08:27:14;68405.78;;;23.00;49.85
44144;BME280;43510;51.920;4.492;2022-09-01T08:29:40;68423.09;;;23.13;49.71
44144;BME280;43510;51.920;4.492;2022-09-01T08:32:06;68440.72;;;23.32;49.15
44144;BME280;43510;51.920;4.492;2022-09-01T08:34:33;68462.00;;;23.48;48.72
44144;BME280;43510;51.920;4.492;2022-09-01T08:36:58;68479.06;;;23.66;47.92
44144;BME280;43510;51.920;4.492;2022-09-01T08:39:25;68498.38;;;23.86;47.49
44144;BME280;43510;51.920;4.492;2022-09-01T08:44:35;68524.16;;;24.07;46.59
44144;BME280;43510;51.920;4.492;2022-09-01T08:47:09;68544.19;;;24.20;46.65
44144;BME280;43510;51.920;4.492;2022-09-01T08:49:37;68530.78;;;24.10;46.35
44144;BME280;43510;51.920;4.492;2022-09-01T08:52:21;68537.72;;;24.19;46.31
44144;BME280;43510;51.920;4.492;2022-09-01T08:57:22;68564.50;;;24.38;46.08
44144;BME280;43510;51.920;4.492;2022-09-01T08:59:51;68569.31;;;24.47;45.83
44144;BME280;43510;51.920;4.492;2022-09-01T09:02:42;68594.38;;;24.74;45.63
44144;BME280;43510;51.920;4.492;2022-09-01T09:14:08;68623.47;;;24.96;44.19
44144;BME280;43510;51.920;4.492;2022-09-01T09:16:42;68617.53;;;24.86;44.01
44144;BME280;43510;51.920;4.492;2022-09-01T09:22:00;68598.50;;;24.71;44.54
44144;BME280;43510;51.920;4.492;2022-09-01T09:29:41;68630.09;;;24.99;43.88
44144;BME280;43510;51.920;4.492;2022-09-01T09:32:10;68625.16;;;24.97;44.22
44144;BME280;43510;51.920;4.492;2022-09-01T09:34:38;68649.69;;;25.24;43.71
44144;BME280;43510;51.920;4.492;2022-09-01T09:37:23;68683.16;;;25.47;43.05
44144;BME280;43510;51.920;4.492;2022-09-01T09:42:27;68683.28;;;25.49;42.17
44144;BME280;43510;51.920;4.492;2022-09-01T09:44:52;68672.69;;;25.42;42.28
44144;BME280;43510;51.920;4.492;2022-09-01T09:47:37;68711.25;;;25.70;42.03
44144;BME280;43510;51.920;4.492;2022-09-01T09:50:17;68700.81;;;25.65;41.85
44144;BME280;43510;51.920;4.492;2022-09-01T09:52:45;68696.84;;;25.62;41.62
44144;BME280;43510;51.920;4.492;2022-09-01T09:55:29;68718.28;;;25.81;41.56
44144;BME280;43510;51.920;4.492;2022-09-01T09:58:00;68701.38;;;25.66;41.80
44144;BME280;43510;51.920;4.492;2022-09-01T10:00:33;68740.88;;;26.01;41.75
44144;BME280;43510;51.920;4.492;2022-09-01T10:03:05;68730.16;;;25.91;40.91
44144;BME280;43510;51.920;4.492;2022-09-01T10:05:45;68742.59;;;26.02;40.71
44144;BME280;43510;51.920;4.492;2022-09-01T10:11:02;68750.34;;;26.07;40.37
44144;BME280;43510;51.920;4.492;2022-09-01T10:13:28;68742.00;;;26.02;40.08
44144;BME280;43510;51.920;4.492;2022-09-01T10:15:58;68742.72;;;26.05;39.68
44144;BME280;43510;51.920;4.492;2022-09-01T10:18:35;68765.75;;;26.23;39.39
44144;BME280;43510;51.920;4.492;2022-09-01T10:21:15;68799.50;;;26.51;38.90
44144;BME280;43510;51.920;4.492;2022-09-01T10:23:43;68814.75;;;26.65;38.35
44144;BME280;43510;51.920;4.492;2022-09-01T10:26:25;68825.63;;;26.77;37.98
44144;BME280;43510;51.920;4.492;2022-09-01T10:29:05;68836.94;;;26.87;36.99
44144;BME280;43510;51.920;4.492;2022-09-01T10:31:33;68834.78;;;26.88;37.21
44144;BME280;43510;51.920;4.492;2022-09-01T10:34:01;68844.72;;;26.92;37.01
44144;BME280;43510;51.920;4.492;2022-09-01T10:36:28;68842.03;;;26.92;36.77
44144;BME280;43510;51.920;4.492;2022-09-01T10:38:54;68821.53;;;26.71;36.35
44144;BME280;43510;51.920;4.492;2022-09-01T10:46:45;68830.69;;;26.81;36.08
44144;BME280;43510;51.920;4.492;2022-09-01T10:49:21;68852.75;;;27.01;35.44
44144;BME280;43510;51.920;4.492;2022-09-01T10:52:06;68844.28;;;26.94;35.96
44144;BME280;43510;51.920;4.492;2022-09-01T10:57:02;68890.06;;;27.35;35.61
44144;BME280;43510;51.920;4.492;2022-09-01T10:59:30;68856.56;;;27.02;35.60
44144;BME280;43510;51.920;4.492;2022-09-01T11:02:14;68867.44;;;27.14;35.94
44144;BME280;43510;51.920;4.492;2022-09-01T11:09:45;68847.09;;;26.96;34.61
44144;BME280;43510;51.920;4.492;2022-09-01T11:12:48;68878.63;;;27.22;34.97
44144;BME280;43510;51.920;4.492;2022-09-01T11:15:42;68890.06;;;27.35;34.63
44144;BME280;43510;51.920;4.492;2022-09-01T11:18:15;68877.50;;;27.21;34.98
44144;BME280;43510;51.920;4.492;2022-09-01T11:20:46;68888.94;;;27.34;34.53
44144;BME280;43510;51.920;4.492;2022-09-01T11:23:28;68920.59;;;27.62;34.56
44144;BME280;43510;51.920;4.492;2022-09-01T11:28:56;68909.88;;;27.52;34.02
44144;BME280;43510;51.920;4.492;2022-09-01T11:31:31;68922.88;;;27.64;33.87
44144;BME280;43510;51.920;4.492;2022-09-01T11:34:15;68931.91;;;27.72;33.80
44144;BME280;43510;51.920;4.492;2022-09-01T11:39:23;68947.03;;;27.83;33.18
44144;BME280;43510;51.920;4.492;2022-09-01T11:42:00;68947.31;;;27.88;32.89
44144;BME280;43510;51.920;4.492;2022-09-01T11:47:24;68939.56;;;27.74;32.47
44144;BME280;43510;51.920;4.492;2022-09-01T11:49:57;68949.28;;;27.85;32.20
44144;BME280;43510;51.920;4.492;2022-09-01T11:52:27;68921.44;;;27.68;32.04
44144;BME280;43510;51.920;4.492;2022-09-01T11:54:55;68921.72;;;27.63;31.71
44144;BME280;43510;51.920;4.492;2022-09-01T11:57:26;68926.25;;;27.67;32.29
44144;BME280;43510;51.920;4.492;2022-09-01T11:59:53;68937.28;;;27.72;32.60
44144;BME280;43510;51.920;4.492;2022-09-01T12:02:31;68945.47;;;27.84;32.47
44144;BME280;43510;51.920;4.492;2022-09-01T12:04:59;68944.31;;;27.83;32.88
44144;BME280;43510;51.920;4.492;2022-09-01T12:07:44;68938.81;;;27.81;31.58
44144;BME280;43510;51.920;4.492;2022-09-01T12:13:09;68901.78;;;27.43;32.00
44144;BME280;43510;51.920;4.492;2022-09-01T12:15:37;68904.16;;;27.47;31.25
44144;BME280;43510;51.920;4.492;2022-09-01T12:18:13;68921.72;;;27.63;31.57
44144;BME280;43510;51.920;4.492;2022-09-01T12:20:39;68927.81;;;27.66;31.56
44144;BME280;43510;51.920;4.492;2022-09-01T12:23:36;68925.09;;;27.66;30.72
44144;BME280;43510;51.920;4.492;2022-09-01T12:28:31;68896.84;;;27.41;30.97
44144;BME280;43510;51.920;4.492;2022-09-01T12:31:00;68926.25;;;27.67;29.96
44144;BME280;43510;51.920;4.492;2022-09-01T12:33:27;68887.38;;;27.35;30.92
44144;BME280;43510;51.920;4.492;2022-09-01T12:36:19;68905.59;;;27.44;30.55
44144;BME280;43510;51.920;4.492;2022-09-01T12:38:46;68904.75;;;27.48;30.52
44144;BME280;43510;51.920;4.492;2022-09-01T12:43:49;68919.47;;;27.61;30.13
44144;BME280;43510;51.920;4.492;2022-09-01T12:46:39;68928.50;;;27.69;29.81
44144;BME280;43510;51.920;4.492;2022-09-01T12:49:22;68909.88;;;27.52;29.49
44144;BME280;43510;51.920;4.492;2022-09-01T12:52:05;68921.16;;;27.63;29.47
44144;BME280;43510;51.920;4.492;2022-09-01T12:54:30;68940.38;;;27.80;28.99
44144;BME280;43510;51.920;4.492;2022-09-01T12:56:56;68926.81;;;27.68;29.11
44144;BME280;43510;51.920;4.492;2022-09-01T12:59:25;68877.59;;;27.23;28.59
44144;BME280;43510;51.920;4.492;2022-09-01T13:01:51;68890.50;;;27.33;29.22
44144;BME280;43510;51.920;4.492;2022-09-01T13:06:45;68907.00;;;27.50;29.19
44144;BME280;43510;51.920;4.492;2022-09-01T13:09:11;68925.97;;;27.62;28.98
44144;BME280;43510;51.920;4.492;2022-09-01T13:11:37;68929.50;;;27.68;28.43
44144;BME280;43510;51.920;4.492;2022-09-01T13:14:02;68935.72;;;27.73;28.75
44144;BME280;43510;51.920;4.492;2022-09-01T13:16:27;68920.59;;;27.62;28.93
44144;BME280;43510;51.920;4.492;2022-09-01T13:18:53;68920.34;;;27.57;28.41
44144;BME280;43510;51.920;4.492;2022-09-01T13:21:18;68923.44;;;27.65;28.01
44144;BME280;43510;51.920;4.492;2022-09-01T13:23:45;68929.06;;;27.70;28.33
44144;BME280;43510;51.920;4.492;2022-09-01T13:26:12;68926.81;;;27.68;28.10
44144;BME280;43510;51.920;4.492;2022-09-01T13:28:37;68930.91;;;27.74;27.84
44144;BME280;43510;51.920;4.492;2022-09-01T13:31:04;68899.09;;;27.43;28.06
44144;BME280;43510;51.920;4.492;2022-09-01T13:33:32;68896.69;;;27.38;28.64
44144;BME280;43510;51.920;4.492;2022-09-01T13:36:00;68895.00;;;27.37;27.91
44144;BME280;43510;51.920;4.492;2022-09-01T13:38:25;68902.91;;;27.44;27.96
44144;BME280;43510;51.920;4.492;2022-09-01T13:40:51;68908.00;;;27.48;28.20
44144;BME280;43510;51.920;4.492;2022-09-01T13:43:21;68917.75;;;27.59;27.56
44144;BME280;43510;51.920;4.492;2022-09-01T13:45:49;68900.78;;;27.44;27.29
44144;BME280;43510;51.920;4.492;2022-09-01T13:48:15;68914.13;;;27.51;27.27
44144;BME280;43510;51.920;4.492;2022-09-01T13:50:41;68914.38;;;27.56;27.50
44144;BME280;43510;51.920;4.492;2022-09-01T13:53:07;68907.00;;;27.50;27.58
44144;BME280;43510;51.920;4.492;2022-09-01T13:55:37;68886.09;;;27.31;27.29
44144;BME280;43510;51.920;4.492;2022-09-01T13:58:03;68899.66;;;27.43;27.44
44144;BME280;43510;51.920;4.492;2022-09-01T14:00:31;68903.47;;;27.44;26.87
44144;BME280;43510;51.920;4.492;2022-09-01T14:03:00;68901.34;;;27.45;26.81
44144;BME280;43510;51.920;4.492;2022-09-01T14:05:30;68899.09;;;27.43;26.49
44144;BME280;43510;51.920;4.492;2022-09-01T14:07:57;68883.81;;;27.29;25.91
44144;BME280;43510;51.920;4.492;2022-09-01T14:10:23;68868.13;;;27.17;26.11
44144;BME280;43510;51.920;4.492;2022-09-01T14:12:49;68864.63;;;27.12;25.98